• Join FlightAware (Why Join?)
  • Login
  • US Flag 
07:22PM EDT


 

Airport Tracker/Info


-or-


 

Live Flight TrackerFlight Track Log ✈ DAL268 ✈ 03-Jun-2013 ✈ KJFK - LLBG / TLV

Flight Track Log - Related Links

Times and Time Zones

All times are in EDT time to prevent confusion due to time zone crossing. See the DAL268 flight status page for this flight to view local times or setup timezone preferences in your user account.

Time Position Orientation Groundspeed Altitude Reporting Facility
EDT Latitude Longitude Course Direction KTS MPH feet Rate Location/Type
11:39PM 40.6340 -73.7770 North 2 2  Level FlightAware
11:40PM 40.6340 -73.7760 90° East 2 2  Level FlightAware
11:40PM 40.6350 -73.7760 360° North 9 10  Level FlightAware
11:42PM 40.6340 -73.7760 180° South 2 2  Level FlightAware
11:45PM 40.8573 -73.5760 37° Northeast  Level FlightAware Approximate
11:45PM 40.6330 -73.7760 37° Northeast  Level FlightAware
11:47PM 40.8204 -73.6000 North  Level FlightAware Approximate
11:48PM 40.9314 -73.5020 37° Northeast  Level FlightAware Approximate
11:49PM 41.0413 -73.4087 30° Northeast  Level FlightAware Approximate
11:50PM 41.1603 -73.3230 37° Northeast  Level FlightAware Approximate
11:51PM 41.2736 -73.2240 29° Northeast  Level FlightAware Approximate
11:51PM 40.6320 -73.7760 217° Southwest 15 17  Level FlightAware
11:52PM 40.6310 -73.7760 180° South 19 22  Level FlightAware
11:52PM 40.6310 -73.7770 270° West 21 24  Level FlightAware
11:52PM 40.6310 -73.7760 90° East 19 22  Level FlightAware
11:53PM 40.6300 -73.7750 143° Southeast 22 25  Level FlightAware
11:53PM 40.6290 -73.7740 143° Southeast 23 26  Level FlightAware
11:54PM 40.6290 -73.7730 90° East 27 31  Level FlightAware
11:54PM 40.6280 -73.7720 143° Southeast 25 29  Level FlightAware
11:55PM 40.6270 -73.7700 123° Southeast 22 25  Level FlightAware
11:56PM 40.6260 -73.7690 143° Southeast 16 18  Level FlightAware
11:58PM 40.8299 -73.6000 North  Level FlightAware Approximate
11:59PM 40.9404 -73.5000 North  Level FlightAware Approximate
12:00AM 41.0496 -73.4022 30° Northeast  Level FlightAware Approximate
12:00AM 40.6250 -73.7700 30° Northeast 20 23  Level FlightAware
12:01AM 40.6250 -73.7710 270° West 16 18 60 Level FlightAware
12:01AM 40.6300 -73.7820 301° West 115 132 180 Level FlightAware
12:02AM 40.6400 -73.8050 300° West 181 208 200 1,020 Climbing FlightAware
12:02AM 40.6480 -73.8360 289° West 192 221 1,000 1,620 Climbing FlightAware
12:03AM 40.6460 -73.8470 257° West 196 226 1,300 1,320 Climbing FlightAware
12:03AM 40.6360 -73.8640 232° Southwest 215 247 1,600 900 Climbing FlightAware
12:03AM 40.6100 -73.8810 206° Southwest 246 283 2,000 1,020 Climbing FlightAware
12:03AM 40.6010 -73.8830 190° South 257 296 2,200 1,200 Climbing FlightAware
12:04AM 40.5760 -73.8700 158° South 275 316 2,600 1,380 Climbing FlightAware
12:04AM 40.5660 -73.8540 129° Southeast 279 321 3,000 1,620 Climbing FlightAware
12:04AM 40.5600 -73.8270 106° East 287 330 3,400 1,980 Climbing FlightAware
12:05AM 40.5680 -73.7790 78° East 296 341 4,500 2,280 Climbing FlightAware
12:05AM 40.5811 -73.7581 50° Northeast 298 343 5,000 2,460 Climbing FlightAware ADS-B
12:06AM 40.6174 -73.7049 48° Northeast 302 348 6,700 2,520 Climbing FlightAware ADS-B
12:06AM 40.6316 -73.6829 50° Northeast 313 360 7,300 2,460 Climbing FlightAware ADS-B
12:06AM 40.6329 -73.6808 51° Northeast 314 361 7,400 2,520 Climbing FlightAware ADS-B
12:06AM 40.6496 -73.6555 49° Northeast 320 368 8,100 2,220 Climbing FlightAware ADS-B
12:06AM 40.6643 -73.6334 49° Northeast 325 374 8,600 2,220 Climbing FlightAware ADS-B
12:07AM 40.6813 -73.6084 48° Northeast 329 379 9,300 2,160 Climbing FlightAware ADS-B
12:07AM 40.7194 -73.5583 45° Northeast 335 386 10,500 1,680 Climbing FlightAware ADS-B
12:07AM 40.7332 -73.5458 34° Northeast 350 403 10,600 900 Climbing FlightAware ADS-B
12:08AM 40.7950 -73.5060 26° Northeast 388 447 11,300 1,140 Climbing FlightAware
12:09AM 40.8760 -73.4560 25° Northeast 428 493 12,300 1,620 Climbing FlightAware
12:10AM 40.9480 -73.4100 26° Northeast 439 505 13,700 2,100 Climbing FlightAware
12:10AM 41.0230 -73.3620 26° Northeast 450 518 15,100 2,220 Climbing FlightAware
12:11AM 41.1030 -73.3110 26° Northeast 455 524 16,800 2,160 Climbing FlightAware
12:12AM 41.1797 -73.2612 26° Northeast 463 533 18,100 1,800 Climbing FlightAware ADS-B
12:12AM 41.2590 -73.2050 28° Northeast 479 551 19,300 1,680 Climbing FlightAware
12:13AM 41.3240 -73.1110 47° Northeast 495 570 20,500 1,560 Climbing FlightAware
12:14AM 41.3810 -73.0070 54° Northeast 508 585 21,500 1,440 Climbing FlightAware
12:15AM 41.4600 -72.8610 54° Northeast 518 596 22,900 1,440 Climbing FlightAware
12:16AM 41.5430 -72.7110 53° Northeast 528 608 24,300 900 Climbing FlightAware
12:17AM 41.6190 -72.5750 53° Northeast 532 612 24,700 720 Climbing FlightAware
12:17AM 41.6630 -72.4930 54° Northeast 532 612 25,400 1,620 Climbing FlightAware
12:18AM 41.7460 -72.3600 50° Northeast 559 643 26,700 1,320 Climbing FlightAware
12:19AM 41.8750 -72.1490 51° Northeast 571 657 28,000 1,020 Climbing FlightAware
12:20AM 41.9410 -72.0390 51° Northeast 578 665 28,700 1,080 Climbing FlightAware
12:21AM 42.0190 -71.9100 51° Northeast 581 669 29,600 1,140 Climbing FlightAware
12:21AM 42.0860 -71.7980 51° Northeast 579 666 30,400 1,200 Climbing FlightAware
12:22AM 42.1580 -71.6740 52° Northeast 578 665 31,300 1,200 Climbing FlightAware
12:23AM 42.2260 -71.5590 51° Northeast 577 664 32,100 960 Climbing FlightAware
12:23AM 42.2980 -71.4380 51° Northeast 578 665 32,700 660 Climbing FlightAware
12:24AM 42.3660 -71.3230 51° Northeast 582 670 33,100 300 Climbing FlightAware
12:25AM 42.4340 -71.2070 52° Northeast 583 671 33,100  Level FlightAware
12:25AM 42.5070 -71.0840 51° Northeast 584 672 33,100  Level FlightAware
12:26AM 42.5780 -70.9610 52° Northeast 584 672 33,100  Level FlightAware
12:27AM 42.6480 -70.8410 52° Northeast 585 673 33,100  Level FlightAware
12:27AM 42.7170 -70.7230 51° Northeast 587 676 33,100  Level FlightAware
12:28AM 42.7910 -70.5950 52° Northeast 587 676 33,100  Level FlightAware
12:29AM 42.8600 -70.4730 52° Northeast 588 677 33,100  Level FlightAware
12:30AM 42.9330 -70.3450 52° Northeast 588 677 33,100  Level FlightAware
12:30AM 43.0000 -70.2280 52° Northeast 588 677 33,100  Level FlightAware
12:31AM 43.0670 -70.1090 52° Northeast 589 678 33,100  Level FlightAware
12:32AM 43.1390 -69.9810 52° Northeast 591 680 33,100  Level FlightAware
12:33AM 43.2270 -69.8250 52° Northeast 585 673 33,100  Level FlightAware
12:33AM 43.2970 -69.6990 53° Northeast 587 676 33,100  Level FlightAware
12:34AM 43.3620 -69.5840 52° Northeast 587 676 33,100  Level FlightAware
12:35AM 43.4690 -69.3910 53° Northeast 592 681 33,100  Level FlightAware
12:36AM 43.5250 -69.2920 52° Northeast 592 681 33,100  Level FlightAware
12:36AM 43.6030 -69.1470 53° Northeast 592 681 33,100  Level FlightAware
12:37AM 43.6790 -69.0090 53° Northeast 592 681 33,100  Level FlightAware
12:38AM 43.7560 -68.8680 53° Northeast 592 681 33,100  Level FlightAware
12:39AM 43.8090 -68.7700 53° Northeast 592 681 33,100  Level FlightAware
12:39AM 43.8980 -68.6060 53° Northeast 594 684 33,100  Level FlightAware
12:40AM 43.9710 -68.4690 53° Northeast 596 686 33,100  Level FlightAware
12:41AM 44.0450 -68.3310 53° Northeast 595 685 33,100  Level FlightAware
12:41AM 44.1060 -68.2160 54° Northeast 596 686 33,100  Level FlightAware
12:42AM 44.1830 -68.0700 54° Northeast 596 686 33,100  Level FlightAware
12:43AM 44.2410 -67.9580 54° Northeast 597 687 33,100  Level FlightAware
12:44AM 44.3180 -67.8110 54° Northeast 597 687 33,100  Level FlightAware
12:44AM 44.3840 -67.6840 54° Northeast 594 684 33,100  Level FlightAware
12:45AM 44.4540 -67.5500 54° Northeast 593 682 33,100  Level FlightAware
12:46AM 44.5230 -67.4180 54° Northeast 591 680 33,100  Level FlightAware
12:46AM 44.5870 -67.2940 54° Northeast 588 677 33,100  Level FlightAware
12:47AM 44.6570 -67.1580 54° Northeast 586 674 33,100  Level FlightAware
12:48AM 44.7150 -67.0450 54° Northeast 586 674 33,100  Level FlightAware
12:49AM 44.7880 -66.9020 54° Northeast 587 676 33,100  Level FlightAware
12:49AM 44.8540 -66.7710 55° Northeast 587 676 33,100  Level FlightAware
12:50AM 44.9240 -66.6330 54° Northeast 587 676 33,100  Level FlightAware
12:50AM 44.9650 -66.5500 55° Northeast 588 677 33,100  Level FlightAware
12:51AM 45.0270 -66.4250 55° Northeast 590 679 33,100  Level FlightAware
12:52AM 45.0990 -66.2820 54° Northeast 591 680 33,100  Level FlightAware
12:52AM 45.1590 -66.1600 55° Northeast 591 680 33,100  Level FlightAware
12:53AM 45.2320 -66.0130 55° Northeast 591 680 33,100  Level FlightAware
12:54AM 45.2940 -65.8870 55° Northeast 592 681 33,100  Level FlightAware
12:55AM 45.3560 -65.7600 55° Northeast 591 680 33,100  Level FlightAware
12:55AM 45.4260 -65.6170 55° Northeast 591 680 33,100  Level FlightAware
12:56AM 45.4920 -65.4830 55° Northeast 590 679 33,100  Level FlightAware
12:57AM 45.5590 -65.3440 55° Northeast 589 678 33,100  Level FlightAware
12:57AM 45.6210 -65.2160 55° Northeast 584 672 33,100  Level FlightAware
12:58AM 45.6880 -65.0770 55° Northeast 579 666 33,100  Level FlightAware
12:59AM 45.7490 -64.9510 55° Northeast 577 664 33,100  Level FlightAware
01:00AM 45.8130 -64.8140 56° Northeast 575 662 33,100  Level FlightAware
01:00AM 45.8760 -64.6810 56° Northeast 572 658 33,100  Level FlightAware
01:01AM 45.9250 -64.5770 56° Northeast 572 658 33,100  Level FlightAware
01:01AM 45.9720 -64.4770 56° Northeast 572 658 33,100  Level FlightAware
01:02AM 46.0680 -64.2720 56° Northeast 571 657 33,100  Level FlightAware
01:03AM 46.1280 -64.1430 56° Northeast 571 657 33,100  Level FlightAware
01:04AM 46.1730 -64.0460 56° Northeast 571 657 33,100  Level FlightAware
01:04AM 46.2200 -63.9460 56° Northeast 571 657 33,100  Level FlightAware
01:05AM 46.2830 -63.8120 56° Northeast 571 657 33,100  Level FlightAware
01:06AM 46.3280 -63.7150 56° Northeast 571 657 33,100  Level FlightAware
01:07AM 46.3880 -63.5850 56° Northeast 571 657 33,100  Level FlightAware
01:07AM 46.4330 -63.4880 56° Northeast 571 657 33,100  Level FlightAware
01:08AM 46.4940 -63.3580 56° Northeast 571 657 33,100  Level FlightAware
01:10AM 46.7020 -62.8630 58° Northeast 568 654 33,100  Level FlightAware
01:11AM 46.7970 -62.6460 57° Northeast 567 652 33,100  Level FlightAware
01:12AM 46.8420 -62.5450 57° Northeast 567 652 33,100  Level FlightAware
01:12AM 46.9200 -62.3650 58° Northeast 566 651 33,100  Level FlightAware
01:13AM 46.9950 -62.1910 58° Northeast 566 651 33,100  Level FlightAware
01:14AM 47.0560 -62.0490 58° Northeast 566 651 33,100  Level FlightAware
01:15AM 47.1550 -61.8160 58° Northeast 566 651 33,100  Level FlightAware
01:16AM 47.2360 -61.6270 58° Northeast 566 651 33,100  Level FlightAware
01:17AM 47.2890 -61.5010 58° Northeast 566 651 33,100  Level FlightAware
01:17AM 47.3530 -61.3470 58° Northeast 566 651 33,100  Level FlightAware
01:18AM 47.4080 -61.2160 58° Northeast 565 650 33,100  Level FlightAware
01:19AM 47.4670 -61.0710 59° Northeast 563 648 33,100  Level FlightAware
01:20AM 47.5130 -60.9620 58° Northeast 562 647 33,100  Level FlightAware
01:20AM 47.5610 -60.8480 58° Northeast 562 647 33,100  Level FlightAware
01:21AM 47.6320 -60.6780 58° Northeast 562 647 33,100  Level FlightAware
01:22AM 47.6750 -60.5780 57° Northeast 562 647 33,100  Level FlightAware
01:23AM 47.7310 -60.4450 58° Northeast 562 647 33,100  Level FlightAware
01:23AM 47.7730 -60.3440 58° Northeast 562 647 33,100  Level FlightAware
01:24AM 47.8270 -60.2160 58° Northeast 562 647 33,100  Level FlightAware
01:25AM 47.8690 -60.1150 58° Northeast 562 647 33,100  Level FlightAware
01:25AM 47.9240 -59.9840 58° Northeast 562 647 33,100  Level FlightAware
01:26AM 48.0240 -59.6830 63° Northeast 553 636 33,100  Level FlightAware
01:27AM 48.0820 -59.5320 60° Northeast 552 635 33,100  Level FlightAware
01:27AM 48.1390 -59.3870 59° Northeast 552 635 33,100  Level FlightAware
01:28AM 48.1970 -59.2350 60° Northeast 552 635 33,100  Level FlightAware
01:29AM 48.2570 -59.0800 60° Northeast 551 634 33,100  Level FlightAware
01:30AM 48.3180 -58.9170 61° Northeast 551 634 33,100  Level FlightAware
01:30AM 48.3680 -58.7860 60° Northeast 550 633 33,100  Level FlightAware
01:31AM 48.4240 -58.6370 60° Northeast 550 633 33,100  Level FlightAware
01:32AM 48.4810 -58.4870 60° Northeast 550 633 33,100  Level FlightAware
01:33AM 48.5240 -58.3710 61° Northeast 551 634 33,100  Level FlightAware
01:33AM 48.5800 -58.2200 61° Northeast 550 633 33,100  Level FlightAware
01:34AM 48.6300 -58.0830 61° Northeast 549 632 33,100  Level FlightAware
01:35AM 48.6800 -57.9480 61° Northeast 547 629 33,100  Level FlightAware
01:35AM 48.7340 -57.8010 61° Northeast 546 628 33,100  Level FlightAware
01:36AM 48.7820 -57.6680 61° Northeast 546 628 33,100  Level FlightAware
01:37AM 48.8330 -57.5150 63° Northeast 546 628 33,100  Level FlightAware
01:37AM 48.8780 -57.3780 63° Northeast 547 629 33,100  Level FlightAware
01:38AM 48.9290 -57.2200 64° Northeast 544 626 33,100  Level FlightAware
01:39AM 48.9720 -57.0890 63° Northeast 544 626 33,100  Level FlightAware
01:40AM 49.0180 -56.9460 64° Northeast 543 625 33,100  Level FlightAware
01:40AM 49.0680 -56.7930 63° Northeast 544 626 33,100  Level FlightAware
01:41AM 49.1120 -56.6560 64° Northeast 544 626 33,100  Level FlightAware
01:42AM 49.1630 -56.4960 64° Northeast 546 628 33,100  Level FlightAware
01:42AM 49.2070 -56.3580 64° Northeast 548 631 33,100  Level FlightAware
01:43AM 49.2560 -56.2010 64° Northeast 549 632 33,100  Level FlightAware
01:44AM 49.3000 -56.0610 64° Northeast 549 632 33,100  Level FlightAware
01:45AM 49.3500 -55.9030 64° Northeast 549 632 33,100  Level FlightAware
01:45AM 49.3770 -55.8160 64° Northeast 549 632 33,100  Level FlightAware
01:46AM 49.4530 -55.5680 65° Northeast 548 631 33,100  Level FlightAware
01:47AM 49.4960 -55.4280 65° Northeast 548 631 33,100  Level FlightAware
01:47AM 49.5390 -55.2880 65° Northeast 548 631 33,100  Level FlightAware
01:48AM 49.5870 -55.1270 65° Northeast 548 631 33,100  Level FlightAware
01:49AM 49.6300 -54.9860 65° Northeast 549 632 33,100  Level FlightAware
01:50AM 49.6730 -54.8450 65° Northeast 549 632 33,100  Level FlightAware
01:50AM 49.7210 -54.6840 65° Northeast 549 632 33,100  Level FlightAware
01:51AM 49.7630 -54.5400 66° East 550 633 33,100  Level FlightAware
01:52AM 49.8100 -54.3800 65° Northeast 550 633 33,100  Level FlightAware
01:52AM 49.8520 -54.2370 65° Northeast 550 633 33,100  Level FlightAware
01:53AM 49.8990 -54.0750 66° East 550 633 33,100  Level FlightAware
01:54AM 49.9400 -53.9320 66° East 550 633 33,100  Level FlightAware
01:55AM 49.9850 -53.7720 66° East 548 631 33,100  Level FlightAware
01:55AM 50.0270 -53.6240 66° East 549 632 33,100  Level FlightAware
01:56AM 50.0720 -53.4640 66° East 549 632 33,100  Level FlightAware
01:57AM 50.1130 -53.3170 66° East 549 632 33,100  Level FlightAware
01:57AM 50.1530 -53.1730 67° East 548 631 33,100  Level FlightAware
01:58AM 50.1980 -53.0100 67° East 549 632 33,100  Level FlightAware
01:59AM 50.2430 -52.8460 67° East 550 633 33,100  Level FlightAware
02:00AM 50.2930 -52.6650 67° East 549 632 33,100  Level FlightAware
02:01AM 50.3620 -52.4110 67° East 550 633 33,100  Level FlightAware
02:02AM 50.4020 -52.2610 67° East 550 633 33,100  Level FlightAware
02:02AM 50.4330 -52.1490 66° East 550 633 33,100  Level FlightAware
02:03AM 50.4730 -51.9990 67° East 550 633 33,100  Level FlightAware
02:04AM 50.5040 -51.8830 67° East 550 633 33,100  Level FlightAware
02:05AM 50.5450 -51.7320 67° East 550 633 33,100  Level FlightAware
02:05AM 50.5770 -51.6130 67° East 550 633 33,100  Level FlightAware
02:06AM 50.6080 -51.4970 67° East 550 633 33,100  Level FlightAware
02:07AM 50.6490 -51.3470 67° East 550 633 33,100  Level FlightAware
02:07AM 50.6790 -51.2330 67° East 550 633 33,100  Level FlightAware
02:08AM 50.7200 -51.0830 67° East 550 633 33,100  Level FlightAware
02:09AM 50.7500 -50.9690 67° East 550 633 33,100  Level FlightAware
02:09AM 50.7910 -50.8180 67° East 550 633 33,100  Level FlightAware
02:10AM 50.8210 -50.7050 67° East 550 633 33,100  Level FlightAware
02:11AM 50.9333 -50.1667 67° East 550 633 33,100  Level Gander Center
02:12AM 50.9833 -49.9333 71° East 560 644 33,100  Level Gander Center
02:13AM 51.0000 -49.6833 84° East 560 644 33,100 -60 Level Gander Center
02:14AM 51.0000 -50.0000 77° East 553 636 33,000  Descending ETMS Enhanced Traffic Management System
02:14AM 51.0333 -49.3667 77° East 570 656 33,100 120 Climbing Gander Center
02:14AM 51.0333 -49.2833 90° East 570 656 33,100 -60 Level Gander Center
02:17AM 51.0963 -48.9257 77° East  Level FlightAware Approximate
02:24AM 51.3084 -47.3483 77° East  Level FlightAware Approximate
02:25AM 51.3370 -47.1218 79° East  Level FlightAware Approximate
02:26AM 51.3651 -46.8951 79° East  Level FlightAware Approximate
02:27AM 51.3928 -46.6680 79° East  Level FlightAware Approximate
02:28AM 51.4201 -46.4407 79° East  Level FlightAware Approximate
02:29AM 51.4469 -46.2131 79° East  Level FlightAware Approximate
02:30AM 51.4732 -45.9852 79° East  Level FlightAware Approximate
02:31AM 51.4992 -45.7571 80° East  Level FlightAware Approximate
02:32AM 51.5247 -45.5287 80° East  Level FlightAware Approximate
02:33AM 51.5497 -45.3000 80° East  Level FlightAware Approximate
02:34AM 51.5743 -45.0712 80° East  Level FlightAware Approximate
02:35AM 51.5984 -44.8420 80° East  Level FlightAware Approximate
02:36AM 51.6221 -44.6127 80° East  Level FlightAware Approximate
02:37AM 51.6454 -44.3830 81° East  Level FlightAware Approximate
02:38AM 51.6676 -44.1586 81° East  Level FlightAware Approximate
02:39AM 51.6895 -43.9340 81° East  Level FlightAware Approximate
02:40AM 51.7109 -43.7092 81° East  Level FlightAware Approximate
02:41AM 51.7319 -43.4837 81° East  Level FlightAware Approximate
02:42AM 51.7525 -43.2581 82° East  Level FlightAware Approximate
02:43AM 51.7727 -43.0323 82° East  Level FlightAware Approximate
02:44AM 51.7924 -42.8062 82° East  Level FlightAware Approximate
02:45AM 51.8117 -42.5800 82° East  Level FlightAware Approximate
02:46AM 51.8305 -42.3535 82° East  Level FlightAware Approximate
02:47AM 51.8490 -42.1269 82° East  Level FlightAware Approximate
02:48AM 51.8669 -41.9001 83° East  Level FlightAware Approximate
02:49AM 51.8845 -41.6731 83° East  Level FlightAware Approximate
02:50AM 51.9016 -41.4460 83° East  Level FlightAware Approximate
02:51AM 51.9183 -41.2187 83° East  Level FlightAware Approximate
02:52AM 51.9345 -40.9912 83° East  Level FlightAware Approximate
02:53AM 51.9503 -40.7635 83° East  Level FlightAware Approximate
02:53AM 52.0000 -40.0000 86° East 582 670 33,000  Level ETMS Enhanced Traffic Management System
02:54AM 51.9657 -40.5357 84° East  Level FlightAware Approximate
02:55AM 51.9806 -40.3077 84° East  Level FlightAware Approximate
02:56AM 51.9950 -40.0796 84° East  Level FlightAware Approximate
02:57AM 52.0062 -39.8510 86° East  Level FlightAware Approximate
02:58AM 52.0154 -39.6220 86° East  Level FlightAware Approximate
02:59AM 52.0704 -37.8978 88° East 582 670 33,000  Level FlightAware Transoceanic
03:00AM 52.0766 -37.6346 88° East 582 670 33,000  Level FlightAware Transoceanic
03:01AM 52.0821 -37.3713 88° East 582 670 33,000  Level FlightAware Transoceanic
03:02AM 52.0871 -37.1080 88° East 582 670 33,000  Level FlightAware Transoceanic
03:03AM 52.0915 -36.8446 89° East 582 670 33,000  Level FlightAware Transoceanic
03:04AM 52.0953 -36.5812 89° East 582 670 33,000  Level FlightAware Transoceanic
03:05AM 52.0986 -36.3177 89° East 582 670 33,000  Level FlightAware Transoceanic
03:06AM 52.1012 -36.0542 89° East 582 670 33,000  Level FlightAware Transoceanic
03:07AM 52.1033 -35.7907 89° East 582 670 33,000  Level FlightAware Transoceanic
03:08AM 52.1048 -35.5271 90° East 582 670 33,000  Level FlightAware Transoceanic
03:09AM 52.1056 -35.2636 90° East 582 670 33,000  Level FlightAware Transoceanic
03:10AM 52.1059 -35.0000 90° East 582 670 33,000  Level FlightAware Transoceanic
03:11AM 52.1056 -34.7364 90° East 582 670 33,000  Level FlightAware Transoceanic
03:12AM 52.1048 -34.4729 90° East 582 670 33,000  Level FlightAware Transoceanic
03:13AM 52.1033 -34.2093 91° East 582 670 33,000  Level FlightAware Transoceanic
03:14AM 52.1012 -33.9458 91° East 582 670 33,000  Level FlightAware Transoceanic
03:15AM 52.0986 -33.6823 91° East 582 670 33,000  Level FlightAware Transoceanic
03:16AM 52.0953 -33.4188 91° East 582 670 33,000  Level FlightAware Transoceanic
03:17AM 52.0915 -33.1554 91° East 582 670 33,000  Level FlightAware Transoceanic
03:18AM 52.0871 -32.8920 92° East 582 670 33,000  Level FlightAware Transoceanic
03:19AM 52.0821 -32.6287 92° East 582 670 33,000  Level FlightAware Transoceanic
03:20AM 52.0766 -32.3654 92° East 582 670 33,000  Level FlightAware Transoceanic
03:21AM 52.0704 -32.1022 92° East 582 670 33,000  Level FlightAware Transoceanic
03:22AM 52.0636 -31.8391 92° East 582 670 33,000  Level FlightAware Transoceanic
03:23AM 52.0563 -31.5761 93° East 582 670 33,000  Level FlightAware Transoceanic
03:24AM 52.0484 -31.3131 93° East 582 670 33,000  Level FlightAware Transoceanic
03:25AM 52.0399 -31.0503 93° East 582 670 33,000  Level FlightAware Transoceanic
03:26AM 52.0308 -30.7875 93° East 582 670 33,000  Level FlightAware Transoceanic
03:27AM 52.0211 -30.5249 94° East 582 670 33,000  Level FlightAware Transoceanic
03:28AM 52.0108 -30.2624 94° East 582 670 33,000  Level FlightAware Transoceanic
03:29AM 52.0014 -30.0335 94° East  Level FlightAware Approximate
03:30AM 51.9915 -29.8047 94° East  Level FlightAware Approximate
03:31AM 52.0068 -29.8381 86° East  Level FlightAware Approximate
03:32AM 52.0159 -29.6091 86° East  Level FlightAware Approximate
03:32AM 52.0000 -30.0000 86° East 540 621 33,000  Level ETMS Enhanced Traffic Management System
03:33AM 52.0247 -29.3801 86° East  Level FlightAware Approximate
03:34AM 52.0330 -29.1506 87° East  Level FlightAware Approximate
03:35AM 52.0408 -28.9209 87° East  Level FlightAware Approximate
03:36AM 52.0482 -28.6913 87° East  Level FlightAware Approximate
03:37AM 52.0552 -28.4615 87° East  Level FlightAware Approximate
03:38AM 52.0726 -27.8079 88° East 540 621 33,000  Level FlightAware Transoceanic
03:39AM 52.0781 -27.5640 88° East 540 621 33,000  Level FlightAware Transoceanic
03:40AM 52.0831 -27.3200 88° East 540 621 33,000  Level FlightAware Transoceanic
03:41AM 52.0877 -27.0759 88° East 540 621 33,000  Level FlightAware Transoceanic
03:42AM 52.0917 -26.8318 89° East 540 621 33,000  Level FlightAware Transoceanic
03:43AM 52.0953 -26.5876 89° East 540 621 33,000  Level FlightAware Transoceanic
03:44AM 52.0983 -26.3434 89° East 540 621 33,000  Level FlightAware Transoceanic
03:45AM 52.1008 -26.0992 89° East 540 621 33,000  Level FlightAware Transoceanic
03:46AM 52.1028 -25.8550 89° East 540 621 33,000  Level FlightAware Transoceanic
03:47AM 52.1044 -25.6107 90° East 540 621 33,000  Level FlightAware Transoceanic
03:48AM 52.1054 -25.3664 90° East 540 621 33,000  Level FlightAware Transoceanic
03:49AM 52.1059 -25.1221 90° East 540 621 33,000  Level FlightAware Transoceanic
03:50AM 52.1059 -24.8779 90° East 540 621 33,000  Level FlightAware Transoceanic
03:51AM 52.1054 -24.6336 90° East 540 621 33,000  Level FlightAware Transoceanic
03:52AM 52.1044 -24.3893 90° East 540 621 33,000  Level FlightAware Transoceanic
03:53AM 52.1028 -24.1450 91° East 540 621 33,000  Level FlightAware Transoceanic
03:54AM 52.1008 -23.9008 91° East 540 621 33,000  Level FlightAware Transoceanic
03:55AM 52.0983 -23.6566 91° East 540 621 33,000  Level FlightAware Transoceanic
03:56AM 52.0953 -23.4124 91° East 540 621 33,000  Level FlightAware Transoceanic
03:57AM 52.0917 -23.1682 91° East 540 621 33,000  Level FlightAware Transoceanic
03:58AM 52.0877 -22.9241 92° East 540 621 33,000  Level FlightAware Transoceanic
03:59AM 52.0831 -22.6800 92° East 540 621 33,000  Level FlightAware Transoceanic
04:00AM 52.0781 -22.4360 92° East 540 621 33,000  Level FlightAware Transoceanic
04:01AM 52.0726 -22.1921 92° East 540 621 33,000  Level FlightAware Transoceanic
04:02AM 52.0665 -21.9482 92° East 540 621 33,000  Level FlightAware Transoceanic
04:03AM 52.0600 -21.7044 93° East 540 621 33,000  Level FlightAware Transoceanic
04:04AM 52.0529 -21.4606 93° East 540 621 33,000  Level FlightAware Transoceanic
04:05AM 52.0453 -21.2169 93° East 540 621 33,000  Level FlightAware Transoceanic
04:06AM 52.0373 -20.9734 93° East 540 621 33,000  Level FlightAware Transoceanic
04:07AM 52.0287 -20.7299 93° East 540 621 33,000  Level FlightAware Transoceanic
04:08AM 52.0196 -20.4865 94° East 540 621 33,000  Level FlightAware Transoceanic
04:09AM 52.0101 -20.2432 94° East 540 621 33,000 60 Level FlightAware Transoceanic
04:10AM 52.0006 -20.0139 94° East  Level FlightAware Approximate
04:11AM 51.9907 -19.7847 94° East  Level FlightAware Approximate
04:12AM 52.0075 -19.7984 86° East  Level FlightAware Approximate
04:13AM 52.0155 -19.5690 87° East  Level FlightAware Approximate
04:14AM 52.0232 -19.3394 87° East  Level FlightAware Approximate
04:15AM 52.0304 -19.1098 87° East  Level FlightAware Approximate
04:16AM 52.0371 -18.8801 87° East  Level FlightAware Approximate
04:17AM 52.0434 -18.6504 87° East  Level FlightAware Approximate
04:18AM 52.0493 -18.4205 88° East  Level FlightAware Approximate
04:19AM 52.0546 -18.1907 88° East  Level FlightAware Approximate
04:20AM 52.0596 -17.9607 88° East  Level FlightAware Approximate
04:21AM 52.0641 -17.7307 88° East  Level FlightAware Approximate
04:22AM 52.0682 -17.5007 88° East  Level FlightAware Approximate
04:23AM 52.0718 -17.2707 88° East  Level FlightAware Approximate
04:24AM 52.0749 -17.0406 89° East  Level FlightAware Approximate
04:25AM 52.0776 -16.8104 89° East  Level FlightAware Approximate
04:26AM 52.0799 -16.5803 89° East  Level FlightAware Approximate
04:27AM 52.0817 -16.3501 89° East  Level FlightAware Approximate
04:28AM 52.0831 -16.1199 89° East  Level FlightAware Approximate
04:29AM 52.0840 -15.8897 90° East  Level FlightAware Approximate
04:30AM 52.0845 -15.6595 90° East  Level FlightAware Approximate
04:31AM 52.0845 -15.4293 90° East  Level FlightAware Approximate
04:32AM 52.0841 -15.1991 90° East  Level FlightAware Approximate
04:33AM 52.0833 -14.9689 90° East  Level FlightAware Approximate
04:34AM 52.0826 -14.7387 90° East  Level FlightAware Approximate
04:35AM 52.0814 -14.5085 90° East  Level FlightAware Approximate
04:36AM 52.0798 -14.2783 91° East  Level FlightAware Approximate
04:37AM 52.0777 -14.0486 91° East  Level FlightAware Approximate
04:38AM 52.0752 -13.8188 91° East  Level FlightAware Approximate
04:39AM 52.0723 -13.5891 91° East  Level FlightAware Approximate
04:40AM 52.0689 -13.3594 91° East  Level FlightAware Approximate
04:41AM 52.0650 -13.1298 91° East  Level FlightAware Approximate
04:42AM 52.0607 -12.9002 92° East  Level FlightAware Approximate
04:43AM 52.0560 -12.6706 92° East  Level FlightAware Approximate
04:44AM 52.0508 -12.4411 92° East  Level FlightAware Approximate
04:45AM 52.0452 -12.2117 92° East  Level FlightAware Approximate
04:45AM 51.8550 -12.4670 92° East 491 565 37,100  Level FlightAware
04:45AM 51.8560 -12.3030 89° East 492 566 37,100  Level FlightAware
04:46AM 52.0391 -11.9823 92° East  Level FlightAware Approximate
04:46AM 51.8560 -12.0550 90° East 492 566 37,100  Level FlightAware
04:47AM 51.8560 -11.8900 90° East 493 567 37,100  Level FlightAware
04:48AM 51.8560 -11.7390 90° East 493 567 37,100  Level FlightAware
04:49AM 51.8560 -11.5750 90° East 493 567 37,100  Level FlightAware
04:50AM 51.8560 -11.2920 90° East 493 567 37,100  Level FlightAware
04:51AM 51.8560 -11.1360 90° East 492 566 37,100  Level FlightAware
04:51AM 51.8550 -10.9810 91° East 492 566 37,100  Level FlightAware
04:52AM 51.8550 -10.8380 90° East 492 566 37,100  Level FlightAware
04:53AM 51.8540 -10.6810 91° East 492 566 37,100  Level FlightAware
04:53AM 51.8530 -10.5170 91° East 492 566 37,100  Level FlightAware
04:54AM 51.8520 -10.3530 91° East 493 567 37,100  Level FlightAware
04:55AM 51.8510 -10.2150 91° East 492 566 37,100  Level FlightAware
04:56AM 51.8490 -10.0360 91° East 492 566 37,100  Level FlightAware
04:56AM 51.8470 -9.8920 91° East 493 567 37,100  Level FlightAware
04:57AM 51.8450 -9.7410 91° East 493 567 37,100  Level FlightAware
04:58AM 51.8430 -9.5770 91° East 493 567 37,100  Level FlightAware
04:58AM 51.8400 -9.4090 92° East 494 568 37,100  Level FlightAware
04:59AM 51.8380 -9.2650 91° East 494 568 37,100  Level FlightAware
05:00AM 51.8350 -9.1180 92° East 494 568 37,100 -120 Level FlightAware
05:00AM 51.8527 -8.9863 92° East 492 566 37,000 -180 Descending FlightAware UK
05:00AM 51.8513 -8.9199 92° East 490 564 37,000 120 Level FlightAware UK
05:01AM 51.8310 -8.9060 92° East 495 570 37,100  Climbing FlightAware
05:01AM 51.8499 -8.8534 92° East 488 562 37,000 -360 Descending FlightAware UK
05:01AM 51.8485 -8.7872 92° East 488 562 37,000  Level FlightAware UK
05:01AM 51.8473 -8.7208 92° East 488 562 37,000 240 Level FlightAware UK
05:01AM 51.8280 -8.7630 92° East 496 571 37,100  Climbing FlightAware
05:02AM 51.8457 -8.6543 92° East 488 562 37,000 -240 Descending FlightAware UK
05:02AM 51.8442 -8.5878 92° East 488 562 37,000 240 Level FlightAware UK
05:02AM 51.8250 -8.6180 92° East 497 572 37,100  Climbing FlightAware
05:02AM 51.8422 -8.4991 92° East 488 562 37,000 -180 Descending FlightAware UK
05:03AM 51.8405 -8.4323 92° East 488 562 37,000 180 Level FlightAware UK
05:03AM 51.8210 -8.4490 92° East 498 573 37,100  Climbing FlightAware
05:03AM 51.8377 -8.3209 92° East 494 568 37,000 -180 Descending FlightAware UK
05:03AM 51.8360 -8.2533 92° East 496 571 37,000 300 Level FlightAware UK
05:03AM 51.8170 -8.2940 92° East 498 573 37,100  Climbing FlightAware
05:04AM 51.8346 -8.1865 92° East 496 571 37,000 -180 Descending FlightAware UK
05:04AM 51.8329 -8.1194 92° East 494 568 37,000 180 Level FlightAware UK
05:04AM 51.8130 -8.1260 92° East 497 572 37,100  Climbing FlightAware
05:04AM 51.8300 -8.0075 92° East 494 568 37,000 -180 Descending FlightAware UK
05:05AM 51.8279 -7.9408 93° East 492 566 37,000 180 Level FlightAware UK
05:05AM 51.8080 -7.9650 93° East 497 572 37,100  Climbing FlightAware
05:05AM 51.8251 -7.8520 93° East 496 571 37,000 -180 Descending FlightAware UK
05:05AM 51.8230 -7.7855 93° East 494 568 37,000 300 Level FlightAware UK
05:05AM 51.8050 -7.8300 93° East 496 571 37,100  Climbing FlightAware
05:06AM 51.8211 -7.7192 93° East 496 571 37,000 -180 Descending FlightAware UK
05:06AM 51.8192 -7.6529 93° East 496 571 37,000 180 Level FlightAware UK
05:06AM 51.8000 -7.6780 93° East 494 568 37,100  Climbing FlightAware
05:07AM 51.8157 -7.5427 93° East 496 571 37,000 -180 Descending FlightAware UK
05:07AM 51.8137 -7.4768 93° East 494 568 37,000 240 Level FlightAware UK
05:07AM 51.7950 -7.5020 93° East 491 565 37,100  Climbing FlightAware
05:07AM 51.8113 -7.3891 93° East 492 566 37,000 -180 Descending FlightAware UK
05:08AM 51.8094 -7.3237 93° East 490 564 37,000 240 Level FlightAware UK
05:08AM 51.7900 -7.3540 93° East 489 563 37,100  Climbing FlightAware
05:08AM 51.8068 -7.2365 93° East 492 566 37,000 -180 Descending FlightAware UK
05:08AM 51.8045 -7.1713 93° East 492 566 37,000 240 Level FlightAware UK
05:08AM 51.7850 -7.1900 93° East 488 562 37,100  Climbing FlightAware
05:09AM 51.8016 -7.0835 93° East 492 566 37,000 -180 Descending FlightAware UK
05:09AM 51.7993 -7.0183 93° East 492 566 37,000 240 Level FlightAware UK
05:09AM 51.7800 -7.0460 93° East 487 560 37,100  Climbing FlightAware
05:09AM 51.7962 -6.9315 93° East 492 566 37,000 -180 Descending FlightAware UK
05:10AM 51.7937 -6.8664 93° East 494 568 37,000 300 Level FlightAware UK
05:10AM 51.7750 -6.9010 93° East 486 559 37,100  Climbing FlightAware
05:10AM 51.7913 -6.8014 93° East 494 568 37,000 -180 Descending FlightAware UK
05:10AM 51.7889 -6.7365 93° East 492 566 37,000 180 Level FlightAware UK
05:10AM 51.7690 -6.7410 93° East 486 559 37,100  Climbing FlightAware
05:11AM 51.7853 -6.6282 93° East 492 566 37,000 -180 Descending FlightAware UK
05:11AM 51.7834 -6.5634 93° East 492 566 37,000 240 Level FlightAware UK
05:11AM 51.7640 -6.5880 93° East 485 558 37,100  Climbing FlightAware
05:11AM 51.7807 -6.4768 93° East 494 568 37,000 -180 Descending FlightAware UK
05:12AM 51.7786 -6.4119 93° East 494 568 37,000 240 Level FlightAware UK
05:12AM 51.7590 -6.4290 93° East 485 558 37,100  Climbing FlightAware
05:12AM 51.7756 -6.3254 93° East 490 564 37,000 -180 Descending FlightAware UK
05:12AM 51.7730 -6.2606 94° East 494 568 37,000 240 Level FlightAware UK
05:13AM 51.7530 -6.2780 94° East 484 557 37,100  Climbing FlightAware
05:13AM 51.7696 -6.1744 94° East 492 566 37,000 -180 Descending FlightAware UK
05:13AM 51.7668 -6.1099 94° East 490 564 37,000 240 Level FlightAware UK
05:13AM 51.7480 -6.1360 94° East 485 558 37,100  Climbing FlightAware
05:14AM 51.7603 -5.9592 94° East 492 566 37,000  Descending FlightAware UK
05:14AM 51.7410 -5.9740 94° East 486 559 37,100  Climbing FlightAware
05:14AM 51.7564 -5.8721 94° East 492 566 37,000 -180 Descending FlightAware UK
05:15AM 51.7535 -5.8072 94° East 492 566 37,000 300 Level FlightAware UK
05:15AM 51.7350 -5.8490 94° East 486 559 37,100  Climbing FlightAware
05:15AM 51.7507 -5.7423 94° East 492 566 37,000 -180 Descending FlightAware UK
05:15AM 51.7479 -5.6775 94° East 492 566 37,000 180 Level FlightAware UK
05:15AM 51.7290 -5.6820 94° East 485 558 37,100  Climbing FlightAware
05:16AM 51.7432 -5.5695 94° East 494 568 37,000 -180 Descending FlightAware UK
05:16AM 51.7404 -5.5048 94° East 494 568 37,000 240 Level FlightAware UK
05:16AM 51.7220 -5.5210 94° East 484 557 37,100  Climbing FlightAware
05:16AM 51.7358 -5.3971 94° East 492 566 37,000  Descending FlightAware UK
05:17AM 51.7160 -5.3900 94° East 484 557 37,100  Climbing FlightAware
05:17AM 51.7328 -5.3326 94° East 490 564 37,000 -360 Descending FlightAware UK
05:17AM 51.7307 -5.2896 94° East 490 564 37,000  Level FlightAware UK
05:17AM 51.7277 -5.2250 94° East 492 566 37,000 180 Level FlightAware UK
05:17AM 51.7080 -5.2200 94° East 485 558 37,100  Climbing FlightAware
05:18AM 51.7209 -5.0736 94° East 488 562 37,000  Descending FlightAware UK
05:18AM 51.7020 -5.0760 94° East 486 559 37,100  Climbing FlightAware
05:18AM 51.7158 -4.9664 94° East 490 564 37,000  Descending FlightAware UK
05:19AM 51.6950 -4.9240 94° East 487 560 37,100  Climbing FlightAware
05:19AM 51.7118 -4.8793 94° East 496 571 37,000  Descending FlightAware UK
05:20AM 51.6880 -4.7700 94° East 486 559 37,100  Climbing FlightAware
05:20AM 51.6993 -4.6200 94° East 494 568 37,000  Descending FlightAware UK
05:20AM 51.6810 -4.6260 94° East 485 558 37,100  Climbing FlightAware
05:21AM 51.6924 -4.4693 94° East 492 566 37,000  Descending FlightAware UK
05:21AM 51.6740 -4.4780 94° East 484 557 37,100  Climbing FlightAware
05:21AM 51.6884 -4.3832 94° East 492 566 37,000 -240 Descending FlightAware UK
05:21AM 51.6854 -4.3180 94° East 490 564 37,000 180 Level FlightAware UK
05:22AM 51.6680 -4.3330 94° East 484 557 37,100  Climbing FlightAware
05:22AM 51.6810 -4.2319 94° East 490 564 37,000 -180 Descending FlightAware UK
05:22AM 51.6777 -4.1673 95° East 490 564 37,000 180 Level FlightAware UK
05:22AM 51.6590 -4.1610 95° East 484 557 37,100  Climbing FlightAware
05:23AM 51.6706 -4.0382 95° East 490 564 37,000  Descending FlightAware UK
05:23AM 51.6510 -4.0180 95° East 484 557 37,100  Climbing FlightAware
05:23AM 51.6671 -3.9736 95° East 492 566 37,000  Descending FlightAware UK
05:24AM 51.6430 -3.8670 95° East 484 557 37,100 60 Climbing FlightAware
05:24AM 51.6388 -3.7898 95° East 485 558 37,100  Level FlightAware ADS-B
05:25AM 51.6317 -3.6690 95° East 484 557 37,100  Level FlightAware ADS-B
05:25AM 51.6253 -3.5577 95° East 485 558 37,100 -120 Level FlightAware ADS-B
05:26AM 51.6353 -3.4349 95° East 500 575 37,000  Descending FlightAware UK
05:26AM 51.6176 -3.4368 95° East 484 557 37,100  Climbing FlightAware ADS-B
05:26AM 51.6283 -3.3278 95° East 496 571 37,000  Descending FlightAware UK
05:26AM 51.6107 -3.3273 95° East 480 552 37,100  Climbing FlightAware ADS-B
05:26AM 51.6224 -3.2428 95° East 494 568 37,000  Descending FlightAware UK
05:27AM 51.6033 -3.2152 95° East 478 550 37,100 60 Climbing FlightAware ADS-B
05:27AM 51.5955 -3.0971 96° East 478 550 37,100  Level FlightAware ADS-B
05:28AM 51.5863 -2.9551 96° East 478 550 37,100 -120 Level FlightAware ADS-B
05:28AM 51.5955 -2.8409 96° East 488 562 37,000  Descending FlightAware UK
05:28AM 51.5790 -2.8488 96° East 478 550 37,100 120 Climbing FlightAware ADS-B
05:29AM 51.5719 -2.7414 96° East 478 550 37,100 -180 Level FlightAware ADS-B
05:29AM 51.5825 -2.6508 96° East 486 559 37,000  Descending FlightAware UK
05:30AM 51.5648 -2.6353 96° East 479 551 37,100  Climbing FlightAware ADS-B
05:30AM 51.5736 -2.5231 96° East 488 562 37,000  Descending FlightAware UK
05:30AM 51.5569 -2.5194 96° East 480 552 37,100 120 Climbing FlightAware ADS-B
05:31AM 51.5474 -2.3847 96° East 480 552 37,100 -120 Level FlightAware ADS-B
05:31AM 51.5571 -2.2891 96° East 486 559 37,000  Descending FlightAware UK
05:31AM 51.5399 -2.2768 96° East 481 554 37,100 120 Climbing FlightAware ADS-B
05:32AM 51.5315 -2.1594 97° East 482 555 37,100  Level FlightAware ADS-B
05:32AM 51.5238 -2.0509 96° East 483 556 37,100 -120 Level FlightAware ADS-B
05:33AM 51.5320 -1.9470 96° East 486 559 37,000  Descending FlightAware UK
05:33AM 51.5159 -1.9434 96° East 484 557 37,100  Climbing FlightAware ADS-B
05:33AM 51.5239 -1.8401 96° East 486 559 37,000  Descending FlightAware UK
05:33AM 51.5075 -1.8310 96° East 485 558 37,100  Climbing FlightAware ADS-B
05:34AM 51.5156 -1.7330 96° East 488 562 37,000  Descending FlightAware UK
05:34AM 51.4994 -1.7237 96° East 486 559 37,100 120 Climbing FlightAware ADS-B
05:34AM 51.4910 -1.6156 97° East 487 560 37,100  Level FlightAware ADS-B
05:35AM 51.4817 -1.4961 97° East 488 562 37,100  Level FlightAware ADS-B
05:35AM 51.4733 -1.3882 97° East 487 560 37,100 -180 Level FlightAware ADS-B
05:36AM 51.4815 -1.3021 97° East 488 562 37,000  Descending FlightAware UK
05:36AM 51.4645 -1.2788 97° East 487 560 37,100 120 Climbing FlightAware ADS-B
05:36AM 51.4554 -1.1654 97° East 487 560 37,100 -120 Level FlightAware ADS-B
05:37AM 51.4600 -1.0436 97° East 488 562 37,000  Descending FlightAware UK
05:37AM 51.4461 -1.0545 97° East 488 562 37,100 120 Climbing FlightAware ADS-B
05:37AM 51.4369 -0.9437 98° East 487 560 37,100  Level FlightAware ADS-B
05:38AM 51.4275 -0.8308 98° East 487 560 37,100  Level FlightAware ADS-B
05:38AM 51.4178 -0.7180 98° East 487 560 37,100  Level FlightAware ADS-B
05:39AM 51.4086 -0.6104 98° East 487 560 37,100  Level FlightAware ADS-B
05:40AM 51.3979 -0.4893 98° East 486 559 37,100  Level FlightAware ADS-B
05:40AM 51.3887 -0.3807 98° East 486 559 37,100  Level FlightAware ADS-B
05:41AM 51.3787 -0.2640 98° East 486 559 37,100  Level FlightAware ADS-B
05:41AM 51.3691 -0.1499 98° East 486 559 37,100  Level FlightAware ADS-B
05:42AM 51.3591 -0.0362 98° East 487 560 37,100 -180 Level FlightAware ADS-B
05:42AM 51.3649 0.0500 98° East 486 559 37,000  Descending FlightAware UK
05:42AM 51.3473 0.0978 98° East 487 560 37,100 60 Climbing FlightAware ADS-B
05:43AM 51.3373 0.2076 98° East 487 560 37,100  Level FlightAware ADS-B
05:43AM 51.3272 0.3146 99° East 487 560 37,100  Level FlightAware ADS-B
05:44AM 51.3162 0.4309 99° East 488 562 37,100 -180 Level FlightAware ADS-B
05:44AM 51.3204 0.5221 99° East 486 559 37,000  Descending FlightAware UK
05:44AM 51.3059 0.5407 99° East 488 562 37,100  Climbing FlightAware ADS-B
05:45AM 51.3102 0.6292 99° East 488 562 37,000  Descending FlightAware UK
05:45AM 51.2951 0.6532 99° East 490 564 37,100 120 Climbing FlightAware ADS-B
05:45AM 51.2846 0.7610 99° East 490 564 37,100 -180 Level FlightAware ADS-B
05:46AM 51.2868 0.8659 99° East 488 562 37,000  Descending FlightAware UK
05:46AM 51.2724 0.8861 99° East 491 565 37,100 120 Climbing FlightAware ADS-B
05:46AM 51.2616 0.9952 99° East 491 565 37,100  Level FlightAware ADS-B
05:47AM 51.2512 1.1024 99° East 491 565 37,100 -120 Level FlightAware ADS-B
05:47AM 51.2504 1.2325 99° East 488 562 37,000 -180 Descending FlightAware UK
05:48AM 51.2440 1.2962 99° East 488 562 37,000 120 Level FlightAware UK
05:48AM 51.2300 1.3120 99° East 491 565 37,100  Climbing FlightAware
05:48AM 51.2307 1.4256 99° East 488 562 37,000 -180 Descending FlightAware UK
05:49AM 51.2219 1.5114 99° East 488 562 37,000 240 Level FlightAware UK
05:49AM 51.2140 1.4680 99° East 491 565 37,100  Climbing FlightAware
05:49AM 51.2152 1.5758 99° East 488 562 37,000 -180 Descending FlightAware UK
05:49AM 51.2086 1.6401 99° East 488 562 37,000 240 Level FlightAware UK
05:49AM 51.1990 1.6130 99° East 490 564 37,100  Climbing FlightAware
05:50AM 51.1994 1.7264 99° East 488 562 37,000 -180 Descending FlightAware UK
05:50AM 51.1927 1.7899 99° East 488 562 37,000 240 Level FlightAware UK
05:50AM 51.1840 1.7580 99° East 490 564 37,100  Climbing FlightAware
05:50AM 51.1859 1.8549 99° East 488 562 37,000  Descending FlightAware UK
05:51AM 51.1700 1.8900 99° East 489 563 37,100  Climbing FlightAware
05:51AM 51.1695 2.0044 99° East 488 562 37,000 -180 Descending FlightAware UK
05:51AM 51.1625 2.0685 100° East 486 559 37,000 180 Level FlightAware UK
05:51AM 51.1530 2.0530 100° East 490 564 37,100  Climbing FlightAware
05:52AM 51.1507 2.1759 100° East 488 562 37,000  Descending FlightAware UK
05:52AM 51.1350 2.2180 100° East 490 564 37,100  Climbing FlightAware
05:53AM 51.1293 2.3680 100° East 486 559 37,000  Descending FlightAware UK
05:53AM 51.1210 2.3420 100° East 490 564 37,100 120 Climbing FlightAware
05:53AM 51.1042 2.4899 100° East 492 566 37,100  Level FlightAware ADS-B
05:54AM 51.0850 2.6430 101° East 491 565 37,100  Level FlightAware
05:55AM 51.0470 2.8570 106° East 492 566 37,100 -120 Level FlightAware
05:56AM 51.0417 2.9598 106° East 488 562 37,000 -180 Descending FlightAware UK
05:56AM 51.0300 3.0222 106° East 488 562 37,000 240 Level FlightAware UK
05:56AM 51.0200 3.0010 106° East 491 565 37,100  Climbing FlightAware
05:56AM 51.0106 3.1262 106° East 490 564 37,000  Descending FlightAware UK
05:57AM 50.9940 3.1440 106° East 491 565 37,100  Climbing FlightAware
05:57AM 50.9872 3.2518 106° East 490 564 37,000  Descending FlightAware UK
05:57AM 50.9680 3.2840 106° East 492 566 37,100 60 Climbing FlightAware
05:58AM 50.9430 3.4170 106° East 491 565 37,100 -180 Level FlightAware
05:58AM 50.9447 3.4806 106° East 490 564 37,000  Descending FlightAware UK
05:59AM 50.9110 3.5870 107° East 490 564 37,100 60 Climbing FlightAware
05:59AM 50.8890 3.7010 107° East 490 564 37,100 -120 Level FlightAware
06:00AM 50.8687 3.8732 107° East 490 564 37,000  Descending FlightAware UK
06:00AM 50.8550 3.8720 107° East 489 563 37,100  Climbing FlightAware
06:01AM 50.8406 4.0175 107° East 490 564 37,000  Descending FlightAware UK
06:01AM 50.8280 4.0110 107° East 489 563 37,100  Climbing FlightAware
06:01AM 50.8079 4.1814 107° East 490 564 37,000  Descending FlightAware UK
06:02AM 50.7990 4.1600 107° East 489 563 37,100  Climbing FlightAware
06:02AM 50.7915 4.2632 107° East 490 564 37,000 -180 Descending FlightAware UK
06:02AM 50.7792 4.3253 107° East 488 562 37,000 240 Level FlightAware UK
06:02AM 50.7720 4.2940 107° East 488 562 37,100  Climbing FlightAware
06:03AM 50.7547 4.4478 107° East 488 562 37,000  Descending FlightAware UK
06:03AM 50.7430 4.4440 107° East 487 560 37,100  Climbing FlightAware
06:03AM 50.7347 4.5500 107° East 490 564 37,000  Descending FlightAware UK
06:04AM 50.7102 4.6062 107° East 487 560 37,100 60 Climbing FlightAware ADS-B
06:04AM 50.6900 4.7110 107° East 483 556 37,100  Level FlightAware
06:05AM 50.6769 4.7808 106° East 486 559 37,100  Level FlightAware ADS-B
06:05AM 50.6570 4.8640 111° Southeast 486 559 37,100  Level FlightAware
06:05AM 50.6277 4.9519 118° Southeast 487 560 37,100  Level FlightAware ADS-B
06:06AM 50.5856 5.0469 125° Southeast 489 563 37,100  Level FlightAware ADS-B
06:07AM 50.5436 5.1384 126° Southeast 489 563 37,100  Level FlightAware ADS-B
06:07AM 50.4736 5.2891 126° Southeast 489 563 37,100  Level FlightAware ADS-B
06:08AM 50.4170 5.4110 126° Southeast 489 563 37,100  Level FlightAware
06:09AM 50.3550 5.5460 126° Southeast 487 560 37,100  Level FlightAware
06:10AM 50.3030 5.6640 125° Southeast 487 560 37,100  Level FlightAware
06:10AM 50.2500 5.7860 124° Southeast 487 560 37,100  Level FlightAware
06:11AM 50.1910 5.9170 125° Southeast 486 559 37,100  Level FlightAware
06:12AM 50.1410 6.0280 125° Southeast 485 558 37,100  Level FlightAware
06:12AM 50.0880 6.1430 126° Southeast 486 559 37,100  Level FlightAware
06:13AM 50.0300 6.2700 125° Southeast 486 559 37,100  Level FlightAware
06:14AM 49.9460 6.4530 125° Southeast 481 554 37,100  Level FlightAware
06:15AM 49.8880 6.5810 125° Southeast 481 554 37,100  Level FlightAware
06:16AM 49.8330 6.6940 127° Southeast 488 562 37,100  Level FlightAware
06:16AM 49.7680 6.8150 130° Southeast 483 556 37,100  Level FlightAware
06:17AM 49.7030 6.9360 130° Southeast 488 562 37,100  Level FlightAware
06:18AM 49.6480 7.0420 129° Southeast 488 562 37,100  Level FlightAware
06:18AM 49.5910 7.1500 129° Southeast 488 562 37,100  Level FlightAware
06:19AM 49.5270 7.2700 129° Southeast 487 560 37,100  Level FlightAware
06:20AM 49.4770 7.3660 129° Southeast 488 562 37,100  Level FlightAware
06:21AM 49.3980 7.5130 130° Southeast 483 556 37,100  Level FlightAware
06:21AM 49.3330 7.6330 130° Southeast 485 558 37,100  Level FlightAware
06:22AM 49.2760 7.7380 130° Southeast 484 557 37,100  Level FlightAware
06:23AM 49.2170 7.8450 130° Southeast 484 557 37,100  Level FlightAware
06:24AM 49.1510 7.9660 130° Southeast 483 556 37,100  Level FlightAware
06:24AM 49.0940 8.0690 130° Southeast 481 554 37,100  Level FlightAware
06:25AM 49.0380 8.1700 130° Southeast 481 554 37,100  Level FlightAware
06:26AM 48.9770 8.2780 131° Southeast 487 560 37,100  Level FlightAware
06:27AM 48.8820 8.4320 133° Southeast 485 558 37,100  Level FlightAware
06:27AM 48.8230 8.5250 134° Southeast 484 557 37,100  Level FlightAware
06:28AM 48.7540 8.6340 134° Southeast 482 555 37,100  Level FlightAware
06:29AM 48.6940 8.7280 134° Southeast 480 552 37,100  Level FlightAware
06:29AM 48.6320 8.8270 133° Southeast 479 551 37,100  Level FlightAware
06:30AM 48.5910 8.8910 134° Southeast 478 550 37,100  Level FlightAware
06:30AM 48.5290 8.9880 134° Southeast 477 549 37,100  Level FlightAware
06:31AM 48.4700 9.0810 134° Southeast 477 549 37,100  Level FlightAware
06:32AM 48.3980 9.1920 134° Southeast 471 542 37,100  Level FlightAware
06:33AM 48.3240 9.3080 134° Southeast 469 540 37,100  Level FlightAware
06:33AM 48.2530 9.4140 135° Southeast 470 541 37,100  Level FlightAware
06:34AM 48.1770 9.5150 138° Southeast 471 542 37,100  Level FlightAware
06:35AM 48.1030 9.6100 139° Southeast 473 544 37,100  Level FlightAware
06:36AM 48.0090 9.7310 139° Southeast 481 554 37,100  Level FlightAware
06:37AM 47.9190 9.8460 139° Southeast 482 555 37,100  Level FlightAware
06:37AM 47.8450 9.9400 140° Southeast 483 556 37,100  Level FlightAware
06:38AM 47.7720 10.0250 142° Southeast 486 559 37,100  Level FlightAware
06:39AM 47.7000 10.1050 143° Southeast 480 552 37,100  Level FlightAware
06:39AM 47.6280 10.1840 144° Southeast 481 554 37,100  Level FlightAware
06:40AM 47.5600 10.2580 144° Southeast 488 562 37,100  Level FlightAware
06:41AM 47.4870 10.3550 138° Southeast 485 558 37,100  Level FlightAware
06:42AM 47.4270 10.4430 135° Southeast 485 558 37,100  Level FlightAware
06:42AM 47.3520 10.5510 136° Southeast 484 557 37,100  Level FlightAware
06:43AM 47.2620 10.6820 135° Southeast 483 556 37,100  Level FlightAware
06:44AM 47.1860 10.7920 135° Southeast 485 558 37,100  Level FlightAware
06:45AM 47.1280 10.8740 136° Southeast 485 558 37,100  Level FlightAware
06:46AM 47.0500 10.9860 136° Southeast 487 560 37,100  Level FlightAware
06:46AM 46.9620 11.1110 136° Southeast 489 563 37,100  Level FlightAware
06:47AM 46.8910 11.2120 136° Southeast 490 564 37,100  Level FlightAware
06:48AM 46.8230 11.3070 136° Southeast 492 566 37,100  Level FlightAware
06:48AM 46.7590 11.3970 136° Southeast 494 568 37,100  Level FlightAware
06:49AM 46.6850 11.5010 136° Southeast 495 570 37,100  Level FlightAware
06:50AM 46.5940 11.6270 136° Southeast 493 567 37,100  Level FlightAware
06:51AM 46.5260 11.7210 136° Southeast 491 565 37,100  Level FlightAware
06:51AM 46.4520 11.8240 136° Southeast 490 564 37,100  Level FlightAware
06:52AM 46.3900 11.9090 137° Southeast 490 564 37,100  Level FlightAware
06:53AM 46.3120 12.0170 136° Southeast 491 565 37,100  Level FlightAware
06:54AM 46.2480 12.1050 136° Southeast 492 566 37,100  Level FlightAware
06:54AM 46.1790 12.1980 137° Southeast 489 563 37,100  Level FlightAware
06:55AM 46.1060 12.2990 136° Southeast 492 566 37,100  Level FlightAware
06:56AM 46.0370 12.3920 137° Southeast 494 568 37,100  Level FlightAware
06:56AM 45.9730 12.4820 136° Southeast 494 568 37,100  Level FlightAware
06:57AM 45.9100 12.6000 127° Southeast 499 574 37,100  Level FlightAware
06:58AM 45.8510 12.7070 128° Southeast 497 572 37,100  Level FlightAware
06:58AM 45.7890 12.8210 128° Southeast 498 573 37,100  Level FlightAware
06:59AM 45.7390 12.9140 128° Southeast 498 573 37,100  Level FlightAware
07:00AM 45.6320 13.1120 128° Southeast 498 573 37,100  Level FlightAware
07:01AM 45.5780 13.2130 127° Southeast 497 572 37,100  Level FlightAware
07:02AM 45.5230 13.3150 128° Southeast 496 571 37,100  Level FlightAware
07:02AM 45.4570 13.4350 128° Southeast 496 571 37,100  Level FlightAware
07:03AM 45.3990 13.5410 128° Southeast 496 571 37,100  Level FlightAware
07:04AM 45.3430 13.6400 129° Southeast 494 568 37,100  Level FlightAware
07:04AM 45.2780 13.7580 128° Southeast 495 570 37,100  Level FlightAware
07:05AM 45.2140 13.8720 129° Southeast 497 572 37,100  Level FlightAware
07:06AM 45.1600 13.9690 128° Southeast 496 571 37,100  Level FlightAware
07:07AM 45.0950 14.0850 128° Southeast 497 572 37,100  Level FlightAware
07:07AM 45.0430 14.1760 129° Southeast 491 565 37,100  Level FlightAware
07:08AM 44.9530 14.3340 129° Southeast 493 567 37,100  Level FlightAware
07:09AM 44.8950 14.4360 129° Southeast 491 565 37,100  Level FlightAware
07:10AM 44.8380 14.5340 129° Southeast 490 564 37,100  Level FlightAware
07:10AM 44.7850 14.6260 129° Southeast 489 563 37,100  Level FlightAware
07:11AM 44.7610 14.6670 129° Southeast 489 563 37,100  Level FlightAware
07:12AM 44.6700 14.8250 129° Southeast 488 562 37,100  Level FlightAware
07:12AM 44.5950 14.9540 129° Southeast 488 562 37,100  Level FlightAware
07:13AM 44.5390 15.0520 129° Southeast 488 562 37,100  Level FlightAware
07:14AM 44.4750 15.1610 129° Southeast 483 556 37,100  Level FlightAware
07:15AM 44.4170 15.2590 130° Southeast 487 560 37,100  Level FlightAware
07:15AM 44.3590 15.3570 130° Southeast 486 559 37,100  Level FlightAware
07:16AM 44.2950 15.4650 130° Southeast 482 555 37,100  Level FlightAware
07:17AM 44.2360 15.5640 130° Southeast 483 556 37,100  Level FlightAware
07:17AM 44.1710 15.6730 130° Southeast 485 558 37,100  Level FlightAware
07:18AM 44.1130 15.7690 130° Southeast 486 559 37,100  Level FlightAware
07:19AM 44.0470 15.8780 130° Southeast 488 562 37,100  Level FlightAware
07:19AM 43.9890 15.9740 130° Southeast 488 562 37,100  Level FlightAware
07:20AM 43.9260 16.0790 130° Southeast 491 565 37,100  Level FlightAware
07:21AM 43.8670 16.1760 130° Southeast 489 563 37,100  Level FlightAware
07:22AM 43.8070 16.2730 131° Southeast 488 562 37,100  Level FlightAware
07:22AM 43.7370 16.3860 131° Southeast 486 559 37,100  Level FlightAware
07:23AM 43.6790 16.4810 130° Southeast 486 559 37,100  Level FlightAware
07:24AM 43.6240 16.5690 131° Southeast 481 554 37,100  Level FlightAware
07:24AM 43.5650 16.6640 131° Southeast 480 552 37,100  Level FlightAware
07:25AM 43.4760 16.8060 131° Southeast 480 552 37,100  Level FlightAware
07:26AM 43.4180 16.8990 131° Southeast 481 554 37,100  Level FlightAware
07:27AM 43.3600 16.9930 130° Southeast 487 560 37,100  Level FlightAware
07:27AM 43.2880 17.1060 131° Southeast 489 563 37,100  Level FlightAware
07:28AM 43.2300 17.1980 131° Southeast 489 563 37,100  Level FlightAware
07:29AM 43.1650 17.3010 131° Southeast 490 564 37,100  Level FlightAware
07:29AM 43.1080 17.3910 131° Southeast 490 564 37,100  Level FlightAware
07:30AM 43.0400 17.4980 131° Southeast 491 565 37,100  Level FlightAware
07:31AM 42.9810 17.5920 131° Southeast 491 565 37,100  Level FlightAware
07:32AM 42.9160 17.6930 131° Southeast 491 565 37,100  Level FlightAware
07:32AM 42.8540 17.7900 131° Southeast 489 563 37,100  Level FlightAware
07:33AM 42.7940 17.8820 132° Southeast 488 562 37,100  Level FlightAware
07:34AM 42.7270 17.9850 132° Southeast 488 562 37,100  Level FlightAware
07:34AM 42.6620 18.0860 131° Southeast 490 564 37,100  Level FlightAware
07:35AM 42.6110 18.1630 132° Southeast 490 564 37,100  Level FlightAware
07:36AM 42.5340 18.2760 133° Southeast 490 564 37,100  Level FlightAware
07:36AM 42.4690 18.3640 135° Southeast 490 564 37,100  Level FlightAware
07:37AM 42.4000 18.4570 135° Southeast 490 564 37,100  Level FlightAware
07:38AM 42.3300 18.5500 135° Southeast 492 566 37,100  Level FlightAware
07:39AM 42.2640 18.6390 135° Southeast 493 567 37,100  Level FlightAware
07:39AM 42.1970 18.7270 136° Southeast 494 568 37,100  Level FlightAware
07:40AM 42.1280 18.8190 135° Southeast 494 568 37,100  Level FlightAware
07:41AM 42.0590 18.9100 136° Southeast 496 571 37,100  Level FlightAware
07:41AM 41.9920 18.9990 135° Southeast 497 572 37,100  Level FlightAware
07:42AM 41.9230 19.0900 136° Southeast 496 571 37,100  Level FlightAware
07:43AM 41.8530 19.1820 136° Southeast 497 572 37,100  Level FlightAware
07:44AM 41.7810 19.2740 136° Southeast 495 570 37,100  Level FlightAware
07:44AM 41.7300 19.3400 136° Southeast 496 571 37,100  Level FlightAware
07:45AM 41.6410 19.4530 136° Southeast 497 572 37,100  Level FlightAware
07:46AM 41.5740 19.5390 136° Southeast 497 572 37,100  Level FlightAware
07:46AM 41.5000 19.6320 137° Southeast 497 572 37,100  Level FlightAware
07:47AM 41.4320 19.7180 137° Southeast 499 574 37,100  Level FlightAware
07:48AM 41.3650 19.8030 136° Southeast 500 575 37,100  Level FlightAware
07:48AM 41.2900 19.8970 137° Southeast 501 577 37,100  Level FlightAware
07:49AM 41.2240 19.9790 137° Southeast 502 578 37,100  Level FlightAware
07:50AM 41.1590 20.0590 137° Southeast 502 578 37,100  Level FlightAware
07:50AM 41.0810 20.1560 137° Southeast 501 577 37,100  Level FlightAware
07:51AM 41.0080 20.2470 137° Southeast 502 578 37,100  Level FlightAware
07:52AM 40.9390 20.3330 137° Southeast 501 577 37,100  Level FlightAware
07:53AM 40.8630 20.4260 137° Southeast 501 577 37,100  Level FlightAware
07:53AM 40.7960 20.5090 137° Southeast 503 579 37,100  Level FlightAware
07:54AM 40.7200 20.6030 137° Southeast 504 580 37,100  Level FlightAware
07:55AM 40.6530 20.6850 137° Southeast 503 579 37,100  Level FlightAware
07:55AM 40.5870 20.7650 137° Southeast 503 579 37,100  Level FlightAware
07:56AM 40.5180 20.8490 137° Southeast 502 578 37,100  Level FlightAware
07:57AM 40.4400 20.9440 137° Southeast 496 571 37,100  Level FlightAware
07:57AM 40.3890 21.0070 137° Southeast 501 577 37,100  Level FlightAware
07:58AM 40.3220 21.0890 137° Southeast 502 578 37,100  Level FlightAware
07:59AM 40.2450 21.1830 137° Southeast 502 578 37,100  Level FlightAware
07:59AM 40.1770 21.2650 137° Southeast 502 578 37,100  Level FlightAware
08:00AM 40.0750 21.3880 137° Southeast 501 577 37,100  Level FlightAware
08:01AM 39.9970 21.4810 138° Southeast 503 579 37,100  Level FlightAware
08:02AM 39.9290 21.5630 137° Southeast 503 579 37,100  Level FlightAware
08:03AM 39.8510 21.6560 138° Southeast 506 582 37,100  Level FlightAware
08:03AM 39.7820 21.7390 137° Southeast 505 581 37,100  Level FlightAware
08:04AM 39.7130 21.8210 138° Southeast 504 580 37,100  Level FlightAware
08:05AM 39.6410 21.9060 138° Southeast 502 578 37,100  Level FlightAware
08:05AM 39.5590 22.0030 138° Southeast 502 578 37,100  Level FlightAware
08:06AM 39.4900 22.0850 137° Southeast 503 579 37,100  Level FlightAware
08:07AM 39.4120 22.1760 138° Southeast 504 580 37,100  Level FlightAware
08:07AM 39.3430 22.2570 138° Southeast 504 580 37,100  Level FlightAware
08:08AM 39.2740 22.3380 138° Southeast 504 580 37,100  Level FlightAware
08:09AM 39.2040 22.4190 138° Southeast 499 574 37,100  Level FlightAware
08:10AM 39.1260 22.5100 138° Southeast 500 575 37,100  Level FlightAware
08:10AM 39.0890 22.5520 139° Southeast 506 582 37,100  Level FlightAware
08:11AM 38.9780 22.6800 138° Southeast 505 581 37,100  Level FlightAware
08:12AM 38.9300 22.7360 138° Southeast 504 580 37,100  Level FlightAware
08:12AM 38.8320 22.8490 138° Southeast 504 580 37,100  Level FlightAware
08:13AM 38.7550 22.9370 138° Southeast 502 578 37,100  Level FlightAware
08:14AM 38.6830 23.0200 138° Southeast 504 580 37,100  Level FlightAware
08:14AM 38.6140 23.0990 138° Southeast 501 577 37,100  Level FlightAware
08:15AM 38.5510 23.1710 138° Southeast 500 575 37,100  Level FlightAware
08:16AM 38.4920 23.2380 138° Southeast 502 578 37,100  Level FlightAware
08:17AM 38.3960 23.3460 139° Southeast 501 577 37,100  Level FlightAware
08:17AM 38.3220 23.4300 138° Southeast 503 579 37,100  Level FlightAware
08:18AM 38.2480 23.5130 139° Southeast 502 578 37,100  Level FlightAware
08:19AM 38.1720 23.5980 139° Southeast 501 577 37,100  Level FlightAware
08:19AM 38.1020 23.6780 138° Southeast 502 578 37,100  Level FlightAware
08:20AM 38.0060 23.7850 139° Southeast 500 575 37,100  Level FlightAware
08:21AM 37.9290 23.8710 139° Southeast 498 573 37,100  Level FlightAware
08:22AM 37.8670 23.9680 129° Southeast 512 589 37,100  Level FlightAware
08:22AM 37.8200 24.0680 121° Southeast 510 587 37,100  Level FlightAware
08:23AM 37.7630 24.1790 123° Southeast 509 586 37,100  Level FlightAware
08:24AM 37.7110 24.2790 123° Southeast 508 585 37,100  Level FlightAware
08:24AM 37.6530 24.3860 124° Southeast 508 585 37,100  Level FlightAware
08:25AM 37.5840 24.5270 122° Southeast 510 587 37,100  Level FlightAware
08:26AM 37.5300 24.6350 122° Southeast 511 588 37,100  Level FlightAware
08:27AM 37.4840 24.7260 122° Southeast 513 590 37,100  Level FlightAware
08:27AM 37.4250 24.8420 123° Southeast 515 593 37,100  Level FlightAware
08:28AM 37.3670 24.9530 123° Southeast 519 597 37,100  Level FlightAware
08:29AM 37.3140 25.0570 123° Southeast 519 597 37,100  Level FlightAware
08:30AM 37.2580 25.1670 123° Southeast 520 598 37,100  Level FlightAware
08:30AM 37.2090 25.2610 123° Southeast 520 598 37,100 240 Level FlightAware
08:31AM 37.1490 25.3780 123° Southeast 523 602 37,500 660 Climbing FlightAware
08:32AM 37.0960 25.4810 123° Southeast 522 601 38,100 420 Climbing FlightAware
08:32AM 37.0410 25.5860 123° Southeast 522 601 38,100  Level FlightAware
08:33AM 36.9850 25.6950 123° Southeast 522 601 38,100  Level FlightAware
08:34AM 36.9270 25.8060 123° Southeast 522 601 38,100  Level FlightAware
08:34AM 36.8770 25.9020 123° Southeast 523 602 38,100  Level FlightAware
08:35AM 36.8310 25.9900 123° Southeast 524 603 38,100  Level FlightAware
08:36AM 36.7660 26.1130 123° Southeast 523 602 38,100  Level FlightAware
08:37AM 36.7050 26.2290 123° Southeast 524 603 38,100 -360 Level FlightAware
08:37AM 36.6490 26.3350 123° Southeast 521 600 37,600 -780 Descending FlightAware
08:38AM 36.5960 26.4350 123° Southeast 516 594 37,100 -360 Descending FlightAware
08:39AM 36.5380 26.5440 123° Southeast 514 592 37,100  Level FlightAware
08:39AM 36.4900 26.6340 124° Southeast 517 595 37,100  Level FlightAware
08:40AM 36.4300 26.7450 124° Southeast 518 596 37,100  Level FlightAware
08:41AM 36.3790 26.8410 123° Southeast 519 597 37,100  Level FlightAware
08:42AM 36.3000 26.9860 124° Southeast 519 597 37,100  Level FlightAware
08:42AM 36.2530 27.0720 124° Southeast 518 596 37,100  Level FlightAware
08:43AM 36.1840 27.2010 124° Southeast 515 593 37,100  Level FlightAware
08:44AM 36.1380 27.2860 124° Southeast 515 593 37,100  Level FlightAware
08:45AM 35.9990 27.5380 121° Southeast 509 586 37,100  Level FlightAware
08:46AM 36.0147 27.5380 121° Southeast  Level Estimated
08:46AM 35.9500 27.6250 125° Southeast 510 587 37,100  Level FlightAware
08:47AM 35.8910 27.7330 124° Southeast 513 590 37,100  Level FlightAware
08:48AM 35.8300 27.8410 125° Southeast 513 590 37,100  Level FlightAware
08:48AM 35.7740 27.9420 124° Southeast 513 590 37,100  Level FlightAware
08:49AM 35.7220 28.0360 124° Southeast 515 593 37,100  Level FlightAware
08:50AM 35.6640 28.1400 124° Southeast 517 595 37,100  Level FlightAware
08:50AM 35.6050 28.2450 125° Southeast 515 593 37,100  Level FlightAware
08:51AM 35.5490 28.3440 125° Southeast 516 594 37,100  Level FlightAware
08:52AM 35.4890 28.4500 125° Southeast 516 594 37,100  Level FlightAware
08:52AM 35.4350 28.5450 125° Southeast 517 595 37,100  Level FlightAware
08:53AM 35.3830 28.6360 125° Southeast 514 592 37,100  Level FlightAware
08:54AM 35.3190 28.7470 125° Southeast 511 588 37,100  Level FlightAware
08:54AM 35.2660 28.8400 125° Southeast 509 586 37,100  Level FlightAware
08:55AM 35.2100 28.9390 125° Southeast 507 583 37,100  Level FlightAware
08:56AM 35.1440 29.0530 125° Southeast 507 583 37,100  Level FlightAware
08:57AM 35.0990 29.1300 126° Southeast 508 585 37,100  Level FlightAware
08:57AM 35.0440 29.2240 126° Southeast 508 585 37,100  Level FlightAware
08:58AM 34.9720 29.3500 125° Southeast 503 579 37,100  Level FlightAware
08:59AM 34.9020 29.4650 127° Southeast 504 580 37,100  Level FlightAware
09:00AM 34.8460 29.5600 126° Southeast 507 583 37,100  Level FlightAware
09:00AM 34.7840 29.6660 125° Southeast 509 586 37,100  Level FlightAware
09:01AM 34.7340 29.7490 126° Southeast 511 588 37,100  Level FlightAware
09:02AM 34.6730 29.8530 125° Southeast 511 588 37,100  Level FlightAware
09:03AM 34.6200 29.9450 125° Southeast 511 588 37,100  Level FlightAware
09:03AM 34.5680 30.0390 124° Southeast 528 608 37,100  Level FlightAware
09:04AM 34.5080 30.1660 120° Southeast 525 604 37,100  Level FlightAware
09:05AM 34.4590 30.2670 120° Southeast 523 602 37,100  Level FlightAware
09:05AM 34.4040 30.3810 120° Southeast 521 600 37,100  Level FlightAware
09:06AM 34.3480 30.4960 121° Southeast 518 596 37,100  Level FlightAware
09:07AM 34.2980 30.5960 121° Southeast 517 595 37,100  Level FlightAware
09:07AM 34.2500 30.6950 120° Southeast 517 595 37,100  Level FlightAware
09:08AM 34.1930 30.8110 121° Southeast 513 590 37,100  Level FlightAware
09:09AM 34.1480 30.9030 121° Southeast 507 583 37,100  Level FlightAware
09:09AM 34.0970 31.0060 121° Southeast 504 580 37,100  Level FlightAware
09:10AM 34.0480 31.1050 121° Southeast 501 577 37,100  Level FlightAware
09:11AM 33.9890 31.2240 121° Southeast 499 574 37,100  Level FlightAware
09:12AM 33.9220 31.3580 121° Southeast 499 574 37,100  Level FlightAware
09:13AM 33.8740 31.4550 121° Southeast 499 574 37,100  Level FlightAware
09:13AM 33.8210 31.5620 121° Southeast 500 575 37,100  Level FlightAware
09:14AM 33.7650 31.6720 121° Southeast 500 575 37,100  Level FlightAware
09:15AM 33.7240 31.7550 121° Southeast 499 574 37,100  Level FlightAware
09:15AM 33.6680 31.8650 121° Southeast 499 574 37,100  Level FlightAware
09:16AM 33.6200 31.9610 121° Southeast 499 574 37,100  Level FlightAware
09:17AM 33.5660 32.0670 121° Southeast 499 574 37,100  Level FlightAware
09:18AM 33.5180 32.1620 121° Southeast 499 574 37,100  Level FlightAware
09:18AM 33.4750 32.2450 122° Southeast 499 574 37,100  Level FlightAware
09:19AM 33.4130 32.3670 121° Southeast 498 573 37,100  Level FlightAware
09:20AM 33.3660 32.4570 122° Southeast 498 573 37,100  Level FlightAware
09:20AM 33.3140 32.5580 122° Southeast 498 573 37,100 -780 Level FlightAware
09:21AM 33.2480 32.6870 121° Southeast 500 575 35,900 -1,560 Descending FlightAware
09:22AM 33.1840 32.8100 122° Southeast 491 565 34,300 -1,740 Descending FlightAware
09:23AM 33.1250 32.9240 122° Southeast 498 573 33,000 -840 Descending FlightAware
09:24AM 33.0750 33.0220 121° Southeast 497 572 33,100 60 Climbing FlightAware
09:24AM 33.0330 33.1060 121° Southeast 498 573 33,100 -600 Level FlightAware
09:25AM 32.9620 33.2450 121° Southeast 476 548 32,200 -960 Descending FlightAware
09:26AM 32.9140 33.3380 122° Southeast 454 522 31,500 -1,380 Descending FlightAware
09:27AM 32.8870 33.4430 107° East 466 536 30,300 -1,740 Descending FlightAware
09:27AM 32.8760 33.5540 97° East 454 522 29,000 -1,980 Descending FlightAware
09:28AM 32.8640 33.6520 98° East 439 505 27,600 -2,220 Descending FlightAware
09:29AM 32.8300 33.7320 117° Southeast 412 474 26,100 -2,400 Descending FlightAware
09:29AM 32.7650 33.7940 141° Southeast 384 442 24,300 -2,880 Descending FlightAware
09:30AM 32.7030 33.8450 145° Southeast 391 450 21,900 -3,420 Descending FlightAware
09:31AM 32.6480 33.8920 144° Southeast 388 447 19,800 -3,960 Descending FlightAware
09:32AM 32.5820 33.9460 145° Southeast 401 461 16,500 -4,260 Descending FlightAware
09:32AM 32.5080 33.9750 162° South 382 440 13,700 -2,040 Descending FlightAware
09:33AM 32.4020 34.0050 167° South 355 409 12,700 -1,740 Descending FlightAware
09:34AM 32.3210 34.0290 166° South 302 348 10,200 -2,580 Descending FlightAware
09:35AM 32.3000 34.0460 146° Southeast 315 362 9,800 -1,380 Descending FlightAware
09:35AM 32.2880 34.0630 130° Southeast 322 371 9,500 -1,260 Descending FlightAware
09:35AM 32.2810 34.0830 112° Southeast 326 375 9,300 -960 Descending FlightAware
09:35AM 32.2790 34.1060 96° East 326 375 9,100 -960 Descending FlightAware
09:36AM 32.2740 34.1610 96° East 325 374 8,600 -780 Descending FlightAware
09:36AM 32.2700 34.2110 95° East 324 373 8,400 -660 Descending FlightAware
09:37AM 32.2650 34.2660 96° East 320 368 8,000 -480 Descending FlightAware
09:37AM 32.2610 34.3210 95° East 320 368 7,900 -180 Descending FlightAware
09:40AM 32.1169 34.6406 125° Southeast  Level Estimated
09:41AM 32.0501 34.7878 125° Southeast  Level Estimated
09:42AM 32.0000 34.8667 125° Southeast  Level FlightAware Approximate
09:43AM 32.0095 34.8769 125° Southeast  Level Estimated
09:44AM 32.0095 34.8769 125° Southeast  Level Estimated
09:45AM 32.0095 34.8769 125° Southeast  Level Estimated
09:46AM 32.0095 34.8769 125° Southeast  Level Estimated
09:47AM 32.0095 34.8769 125° Southeast  Level Estimated
09:48AM 32.0095 34.8769 125° Southeast  Level Estimated
09:49AM 32.0095 34.8769 125° Southeast  Level Estimated
09:50AM 32.0095 34.8769 125° Southeast  Level Estimated